Time;durP1;ratioP1;P1;durP2;ratioP2;P2;SDS_P1;SDS_P2;PMS_P1;PMS_P2;Temp;Humidity;BMP_temperature;BMP_pressure;BME280_temperature;BME280_humidity;BME280_pressure;Samples;Min_cycle;Max_cycle;Signal;HPM_P1;HPM_P2
2024/01/03 00:01:12;;;;;;;0.10;0.10;;;;;;;;;;5066644;28;20092;-82
2024/01/03 00:03:38;;;;;;;0.10;0.10;;;;;;;;;;5068318;28;20067;-81
2024/01/03 00:06:08;;;;;;;0.10;0.10;;;;;;;;;;5133990;22;20528;-77
2024/01/03 00:08:38;;;;;;;0.10;0.10;;;;;;;;;;5103611;28;20048;-79
2024/01/03 00:11:04;;;;;;;0.10;0.10;;;;;;;;;;5100358;28;20053;-80
2024/01/03 00:13:31;;;;;;;0.10;0.10;;;;;;;;;;5106150;28;20584;-78
2024/01/03 00:16:03;;;;;;;0.10;0.10;;;;;;;;;;5110679;28;20054;-80
2024/01/03 00:18:30;;;;;;;0.10;0.10;;;;;;;;;;5106733;28;20037;-80
2024/01/03 00:20:57;;;;;;;1.63;1.55;;;;;;;;;;5107299;28;20044;-80
2024/01/03 00:23:28;;;;;;;0.10;0.10;;;;;;;;;;5116381;27;20086;-80
2024/01/03 00:25:55;;;;;;;0.10;0.10;;;;;;;;;;5103768;27;20085;-77
2024/01/03 00:28:22;;;;;;;0.10;0.10;;;;;;;;;;5099107;28;20545;-79
2024/01/03 00:30:48;;;;;;;0.10;0.10;;;;;;;;;;5106587;28;20048;-78
2024/01/03 00:33:15;;;;;;;0.10;0.10;;;;;;;;;;5108925;28;20551;-78
2024/01/03 00:35:42;;;;;;;0.10;0.10;;;;;;;;;;5111172;28;20055;-78
2024/01/03 00:38:10;;;;;;;0.10;0.10;;;;;;;;;;5114164;27;20048;-78
2024/01/03 00:40:57;;;;;;;0.10;0.10;;;;;;;;;;5108037;27;20063;-79
2024/01/03 00:43:24;;;;;;;0.10;0.10;;;;;;;;;;5112427;28;20058;-80
2024/01/03 00:45:51;;;;;;;0.10;0.10;;;;;;;;;;5112865;27;20143;-79
2024/01/03 00:48:18;;;;;;;0.10;0.10;;;;;;;;;;5113443;27;20052;-80
2024/01/03 00:50:47;;;;;;;0.10;0.10;;;;;;;;;;5106019;27;20174;-80
2024/01/03 00:53:13;;;;;;;0.00;0.00;;;;;;;;;;5102909;27;20516;-79
2024/01/03 00:55:40;;;;;;;0.10;0.10;;;;;;;;;;5100572;28;20048;-78
2024/01/03 00:58:07;;;;;;;0.10;0.10;;;;;;;;;;5113012;27;20494;-79
2024/01/03 01:00:34;;;;;;;0.10;0.10;;;;;;;;;;5109078;27;20040;-79
2024/01/03 01:03:00;;;;;;;0.10;0.10;;;;;;;;;;5104991;27;20121;-80
2024/01/03 01:05:27;;;;;;;0.10;0.10;;;;;;;;;;5111922;28;20055;-79
2024/01/03 01:07:53;;;;;;;0.20;0.20;;;;;;;;;;5112501;28;20109;-79
2024/01/03 01:10:20;;;;;;;0.10;0.10;;;;;;;;;;5109474;28;20055;-80
2024/01/03 01:12:46;;;;;;;0.10;0.10;;;;;;;;;;5108301;27;20051;-79
2024/01/03 01:15:12;;;;;;;0.10;0.10;;;;;;;;;;5112357;27;20054;-77
2024/01/03 01:17:39;;;;;;;0.43;0.38;;;;;;;;;;5111540;28;20052;-78
2024/01/03 01:20:05;;;;;;;0.10;0.10;;;;;;;;;;5108709;28;20590;-79
2024/01/03 01:22:32;;;;;;;0.10;0.10;;;;;;;;;;5100631;28;20094;-79
2024/01/03 01:24:58;;;;;;;6.80;1.15;;;;;;;;;;5109282;28;20079;-80
2024/01/03 01:27:25;;;;;;;0.10;0.10;;;;;;;;;;5104488;28;20053;-79
2024/01/03 01:29:51;;;;;;;0.10;0.10;;;;;;;;;;5104267;27;20063;-78
2024/01/03 01:32:17;;;;;;;0.10;0.10;;;;;;;;;;5099493;28;20511;-78
2024/01/03 01:34:44;;;;;;;0.10;0.10;;;;;;;;;;5107398;28;20083;-78
2024/01/03 01:37:10;;;;;;;0.10;0.10;;;;;;;;;;5108675;28;20059;-78
2024/01/03 01:39:37;;;;;;;0.10;0.10;;;;;;;;;;5105835;27;20060;-78
2024/01/03 01:42:03;;;;;;;0.10;0.10;;;;;;;;;;5105472;27;20052;-78
2024/01/03 01:44:30;;;;;;;0.10;0.10;;;;;;;;;;5104241;27;20052;-78
2024/01/03 01:46:57;;;;;;;0.10;0.10;;;;;;;;;;5100149;27;20133;-78
2024/01/03 01:49:23;;;;;;;0.10;0.10;;;;;;;;;;5097987;27;20529;-77
2024/01/03 01:51:50;;;;;;;0.20;0.20;;;;;;;;;;5106660;28;20082;-78
2024/01/03 01:54:17;;;;;;;3.10;0.80;;;;;;;;;;5106144;28;20047;-78
2024/01/03 01:56:44;;;;;;;1.20;1.10;;;;;;;;;;5097993;28;20069;-78
2024/01/03 01:59:11;;;;;;;0.43;0.43;;;;;;;;;;5097054;27;20502;-78
2024/01/03 02:01:37;;;;;;;0.10;0.10;;;;;;;;;;5102940;28;20056;-78
2024/01/03 02:04:04;;;;;;;0.10;0.10;;;;;;;;;;5106287;27;20055;-78
2024/01/03 02:06:32;;;;;;;0.22;0.22;;;;;;;;;;5102950;27;20052;-78
2024/01/03 02:08:58;;;;;;;0.10;0.10;;;;;;;;;;5106484;27;20056;-78
2024/01/03 02:11:25;;;;;;;0.10;0.10;;;;;;;;;;5102986;28;20079;-78
2024/01/03 02:13:51;;;;;;;0.10;0.10;;;;;;;;;;5103045;28;20110;-78
2024/01/03 02:16:17;;;;;;;0.10;0.10;;;;;;;;;;5093406;28;20079;-78
2024/01/03 02:18:44;;;;;;;0.10;0.10;;;;;;;;;;5097332;28;20129;-78
2024/01/03 02:21:15;;;;;;;0.10;0.10;;;;;;;;;;5109734;27;20055;-78
2024/01/03 02:23:44;;;;;;;0.98;0.98;;;;;;;;;;5107128;27;20058;-78
2024/01/03 02:26:11;;;;;;;0.10;0.10;;;;;;;;;;5096742;28;20138;-78
2024/01/03 02:28:51;;;;;;;0.10;0.10;;;;;;;;;;5097020;28;20055;-78
2024/01/03 02:31:17;;;;;;;0.13;0.13;;;;;;;;;;5106691;28;20052;-78
2024/01/03 02:33:44;;;;;;;0.10;0.10;;;;;;;;;;5108193;27;20135;-75
2024/01/03 02:36:10;;;;;;;0.10;0.10;;;;;;;;;;5102909;28;20079;-75
2024/01/03 02:38:37;;;;;;;10.43;1.55;;;;;;;;;;5118421;27;20079;-75
2024/01/03 02:41:03;;;;;;;0.20;0.20;;;;;;;;;;5111033;27;20098;-75
2024/01/03 02:43:30;;;;;;;0.10;0.10;;;;;;;;;;5106446;28;20135;-75
2024/01/03 02:45:56;;;;;;;0.10;0.10;;;;;;;;;;5105871;28;20602;-77
2024/01/03 02:48:23;;;;;;;0.10;0.10;;;;;;;;;;5106349;28;20060;-78
2024/01/03 02:50:49;;;;;;;0.10;0.10;;;;;;;;;;5102643;28;20056;-78
2024/01/03 02:53:16;;;;;;;0.10;0.10;;;;;;;;;;5099292;28;20056;-78
2024/01/03 02:55:42;;;;;;;0.10;0.10;;;;;;;;;;5099520;27;20048;-78
2024/01/03 02:58:09;;;;;;;0.32;0.32;;;;;;;;;;5110852;28;20052;-78
2024/01/03 03:00:36;;;;;;;0.10;0.10;;;;;;;;;;5101957;28;20088;-78
2024/01/03 03:03:03;;;;;;;0.10;0.10;;;;;;;;;;5102546;27;20583;-78
2024/01/03 03:05:29;;;;;;;0.17;0.17;;;;;;;;;;5100161;28;20550;-78
2024/01/03 03:07:56;;;;;;;0.10;0.10;;;;;;;;;;5109711;28;20055;-78
2024/01/03 03:10:24;;;;;;;0.10;0.10;;;;;;;;;;5106291;28;20568;-78
2024/01/03 03:12:51;;;;;;;0.10;0.10;;;;;;;;;;5103767;27;20055;-78
2024/01/03 03:15:17;;;;;;;0.10;0.10;;;;;;;;;;5101799;28;20048;-78
2024/01/03 03:17:44;;;;;;;0.10;0.10;;;;;;;;;;5097766;28;20435;-78
2024/01/03 03:20:10;;;;;;;0.10;0.10;;;;;;;;;;5109982;28;20525;-78
2024/01/03 03:22:37;;;;;;;0.30;0.30;;;;;;;;;;5108579;28;20109;-78
2024/01/03 03:25:03;;;;;;;0.10;0.10;;;;;;;;;;5107837;28;20051;-77
2024/01/03 03:27:30;;;;;;;0.10;0.10;;;;;;;;;;5109121;27;20110;-78
2024/01/03 03:29:56;;;;;;;0.10;0.10;;;;;;;;;;5117147;27;20514;-78
2024/01/03 03:32:23;;;;;;;0.10;0.10;;;;;;;;;;5105167;27;20049;-78
2024/01/03 03:34:50;;;;;;;0.10;0.10;;;;;;;;;;5104107;28;20058;-78
2024/01/03 03:37:17;;;;;;;0.10;0.10;;;;;;;;;;5101024;27;20522;-78
2024/01/03 03:39:43;;;;;;;0.10;0.10;;;;;;;;;;5103611;28;20059;-78
2024/01/03 03:42:09;;;;;;;0.10;0.10;;;;;;;;;;5102853;28;20060;-78
2024/01/03 03:44:40;;;;;;;0.10;0.10;;;;;;;;;;5104544;27;20140;-78
2024/01/03 03:47:07;;;;;;;;;;;;;;;;;;5110700;27;20571;-78
2024/01/03 03:49:33;;;;;;;0.10;0.10;;;;;;;;;;5105121;27;46971;-78
2024/01/03 03:52:00;;;;;;;0.80;0.80;;;;;;;;;;5105419;27;20067;-78
2024/01/03 03:54:26;;;;;;;0.10;0.10;;;;;;;;;;5101261;28;20063;-78
2024/01/03 03:56:52;;;;;;;0.10;0.10;;;;;;;;;;5108430;28;20101;-78
2024/01/03 03:59:19;;;;;;;0.10;0.10;;;;;;;;;;5109369;28;20075;-78
2024/01/03 04:01:49;;;;;;;0.10;0.10;;;;;;;;;;5107890;28;20066;-78
2024/01/03 04:04:17;;;;;;;0.10;0.10;;;;;;;;;;5110758;27;20055;-78
2024/01/03 04:06:43;;;;;;;0.10;0.10;;;;;;;;;;5103614;27;20075;-78
2024/01/03 04:09:13;;;;;;;0.10;0.10;;;;;;;;;;5103614;28;20048;-78
2024/01/03 04:11:40;;;;;;;0.43;0.43;;;;;;;;;;5107792;28;20131;-78
2024/01/03 04:14:07;;;;;;;0.10;0.10;;;;;;;;;;5098081;28;20048;-78
2024/01/03 04:16:34;;;;;;;0.10;0.10;;;;;;;;;;5096897;28;20083;-78
2024/01/03 04:19:01;;;;;;;0.10;0.10;;;;;;;;;;5106497;28;20105;-78
2024/01/03 04:21:28;;;;;;;0.10;0.10;;;;;;;;;;5112584;27;20056;-78
2024/01/03 04:23:54;;;;;;;0.10;0.10;;;;;;;;;;5102580;27;20044;-78
2024/01/03 04:26:21;;;;;;;0.10;0.10;;;;;;;;;;5109362;27;20055;-78
2024/01/03 04:28:48;;;;;;;0.10;0.10;;;;;;;;;;5109392;27;20055;-77
2024/01/03 04:31:15;;;;;;;0.65;0.65;;;;;;;;;;5108501;28;20135;-78
2024/01/03 04:33:41;;;;;;;0.10;0.10;;;;;;;;;;5097431;27;20052;-78
2024/01/03 04:36:09;;;;;;;0.10;0.10;;;;;;;;;;5097331;28;20530;-77
2024/01/03 04:38:36;;;;;;;0.10;0.10;;;;;;;;;;5112619;27;20063;-78
2024/01/03 04:41:02;;;;;;;0.20;0.20;;;;;;;;;;5109354;28;20056;-78
2024/01/03 04:43:29;;;;;;;0.10;0.10;;;;;;;;;;5101762;28;20089;-78
2024/01/03 04:45:55;;;;;;;0.10;0.10;;;;;;;;;;5102825;28;20502;-78
2024/01/03 04:48:22;;;;;;;0.20;0.20;;;;;;;;;;5107631;28;20048;-78
2024/01/03 04:50:48;;;;;;;1.00;1.00;;;;;;;;;;5093295;28;20143;-77
2024/01/03 04:53:15;;;;;;;0.10;0.10;;;;;;;;;;5101652;28;20106;-78
2024/01/03 04:55:41;;;;;;;0.10;0.10;;;;;;;;;;5106291;27;20055;-78
2024/01/03 04:58:08;;;;;;;0.10;0.10;;;;;;;;;;5108321;28;20056;-78
2024/01/03 05:00:36;;;;;;;0.63;0.63;;;;;;;;;;5102940;28;20062;-78
2024/01/03 05:03:03;;;;;;;0.10;0.10;;;;;;;;;;5096902;28;20510;-78
2024/01/03 05:05:30;;;;;;;0.10;0.10;;;;;;;;;;5091128;27;20548;-78
2024/01/03 05:07:56;;;;;;;0.20;0.20;;;;;;;;;;5108429;28;20048;-77
2024/01/03 05:10:23;;;;;;;0.10;0.10;;;;;;;;;;5102685;28;20575;-78
2024/01/03 05:12:49;;;;;;;0.10;0.10;;;;;;;;;;5110545;27;20126;-78
2024/01/03 05:15:16;;;;;;;0.10;0.10;;;;;;;;;;5095103;27;20052;-78
2024/01/03 05:17:44;;;;;;;0.10;0.10;;;;;;;;;;5102248;28;20056;-78
2024/01/03 05:20:11;;;;;;;0.10;0.10;;;;;;;;;;5106586;28;20095;-77
2024/01/03 05:22:37;;;;;;;0.10;0.10;;;;;;;;;;5105863;28;20143;-78
2024/01/03 05:25:06;;;;;;;0.10;0.10;;;;;;;;;;5098636;28;20244;-78
2024/01/03 05:27:32;;;;;;;0.35;0.35;;;;;;;;;;5107427;27;20067;-78
2024/01/03 05:29:59;;;;;;;0.13;0.13;;;;;;;;;;5096186;27;20048;-78
2024/01/03 05:32:26;;;;;;;0.10;0.10;;;;;;;;;;5102805;28;20109;-78
2024/01/03 05:34:53;;;;;;;0.10;0.10;;;;;;;;;;5103636;27;20142;-77
2024/01/03 05:37:19;;;;;;;0.10;0.10;;;;;;;;;;5107329;28;20395;-78
2024/01/03 05:39:46;;;;;;;0.95;0.90;;;;;;;;;;5108445;28;20058;-78
2024/01/03 05:42:12;;;;;;;0.10;0.10;;;;;;;;;;5105532;28;20048;-78
2024/01/03 05:44:39;;;;;;;0.10;0.10;;;;;;;;;;5098470;28;20531;-78
2024/01/03 05:47:05;;;;;;;0.93;0.90;;;;;;;;;;5111617;27;20137;-78
2024/01/03 05:49:33;;;;;;;0.10;0.10;;;;;;;;;;5101047;28;20091;-77
2024/01/03 05:52:01;;;;;;;0.10;0.10;;;;;;;;;;5095099;28;20055;-78
2024/01/03 05:54:28;;;;;;;0.10;0.10;;;;;;;;;;5102009;28;20060;-78
2024/01/03 05:56:54;;;;;;;0.10;0.10;;;;;;;;;;5100638;27;20088;-78
2024/01/03 05:59:20;;;;;;;0.10;0.10;;;;;;;;;;5096390;28;20143;-77
2024/01/03 06:01:47;;;;;;;0.13;0.13;;;;;;;;;;5108425;27;20055;-78
2024/01/03 06:04:13;;;;;;;0.10;0.10;;;;;;;;;;5099464;27;20187;-77
2024/01/03 06:09:07;;;;;;;0.10;0.10;;;;;;;;;;5085651;28;20057;-79
2024/01/03 06:11:35;;;;;;;0.10;0.10;;;;;;;;;;5084939;28;20055;-80
2024/01/03 06:14:03;;;;;;;0.10;0.10;;;;;;;;;;5088131;28;20059;-80
2024/01/03 06:16:29;;;;;;;0.10;0.10;;;;;;;;;;5089111;28;20082;-80
2024/01/03 06:18:56;;;;;;;0.10;0.10;;;;;;;;;;5083828;28;20060;-79
2024/01/03 06:21:22;;;;;;;0.10;0.10;;;;;;;;;;5091605;28;20049;-80
2024/01/03 06:23:49;;;;;;;0.10;0.10;;;;;;;;;;5091381;28;20135;-80
2024/01/03 06:26:15;;;;;;;0.10;0.10;;;;;;;;;;5091263;28;20056;-80
2024/01/03 06:28:42;;;;;;;0.10;0.10;;;;;;;;;;5092334;28;20540;-80
2024/01/03 06:31:08;;;;;;;0.30;0.30;;;;;;;;;;5093777;28;20922;-80
2024/01/03 06:33:35;;;;;;;0.10;0.10;;;;;;;;;;5093100;28;20052;-80
2024/01/03 06:36:02;;;;;;;1.13;1.05;;;;;;;;;;5083164;28;20523;-80
2024/01/03 06:38:28;;;;;;;0.10;0.10;;;;;;;;;;5085508;28;20061;-80
2024/01/03 06:40:54;;;;;;;0.13;0.13;;;;;;;;;;5093939;28;20148;-81
2024/01/03 06:43:23;;;;;;;0.10;0.10;;;;;;;;;;5091743;28;20061;-80
2024/01/03 06:45:50;;;;;;;0.10;0.10;;;;;;;;;;5083009;28;20053;-83
2024/01/03 06:48:17;;;;;;;0.10;0.10;;;;;;;;;;5084861;28;20056;-81
2024/01/03 06:50:44;;;;;;;0.40;0.40;;;;;;;;;;5092201;28;20052;-80
2024/01/03 06:53:10;;;;;;;0.10;0.10;;;;;;;;;;5090751;28;20054;-80
2024/01/03 06:55:36;;;;;;;0.10;0.10;;;;;;;;;;5088279;28;20056;-80
2024/01/03 06:58:03;;;;;;;0.10;0.10;;;;;;;;;;5089081;28;20580;-81
2024/01/03 07:00:29;;;;;;;0.10;0.10;;;;;;;;;;5093282;28;20110;-81
2024/01/03 07:02:56;;;;;;;0.10;0.10;;;;;;;;;;5093109;28;20061;-81
2024/01/03 07:05:22;;;;;;;0.10;0.10;;;;;;;;;;5090506;28;20044;-81
2024/01/03 07:07:49;;;;;;;0.10;0.10;;;;;;;;;;5091640;28;20157;-82
2024/01/03 07:10:16;;;;;;;0.10;0.10;;;;;;;;;;5089766;28;20053;-81
2024/01/03 07:12:42;;;;;;;0.10;0.10;;;;;;;;;;5081200;28;20131;-81
2024/01/03 07:15:09;;;;;;;0.10;0.10;;;;;;;;;;5083029;28;20048;-81
2024/01/03 07:17:36;;;;;;;0.00;0.00;;;;;;;;;;5079691;28;20094;-81
2024/01/03 07:20:02;;;;;;;0.10;0.10;;;;;;;;;;5080281;28;20573;-81
2024/01/03 07:22:29;;;;;;;0.10;0.10;;;;;;;;;;5085221;28;21014;-81
2024/01/03 07:24:55;;;;;;;0.10;0.10;;;;;;;;;;5088524;28;20110;-81
2024/01/03 07:27:22;;;;;;;0.10;0.10;;;;;;;;;;5088667;28;20056;-83
2024/01/03 07:29:49;;;;;;;0.10;0.10;;;;;;;;;;5087043;28;20063;-82
2024/01/03 07:32:16;;;;;;;0.10;0.10;;;;;;;;;;5091475;28;20551;-82
2024/01/03 07:34:42;;;;;;;0.10;0.10;;;;;;;;;;5088782;28;20847;-82
2024/01/03 07:37:09;;;;;;;0.10;0.10;;;;;;;;;;5089816;28;20049;-82
2024/01/03 07:39:35;;;;;;;0.10;0.10;;;;;;;;;;5086279;28;20084;-82
2024/01/03 07:42:02;;;;;;;0.10;0.10;;;;;;;;;;5091097;28;20049;-83
2024/01/03 07:44:33;;;;;;;0.10;0.10;;;;;;;;;;5089004;28;20056;-82
2024/01/03 07:47:00;;;;;;;0.10;0.10;;;;;;;;;;5091185;28;20052;-82
2024/01/03 07:49:27;;;;;;;0.10;0.10;;;;;;;;;;5089203;28;20037;-83
2024/01/03 07:51:53;;;;;;;0.10;0.10;;;;;;;;;;5088953;28;20052;-83
2024/01/03 07:54:20;;;;;;;0.10;0.10;;;;;;;;;;5091091;28;20052;-82
2024/01/03 07:56:46;;;;;;;0.10;0.10;;;;;;;;;;5089588;28;20053;-82
2024/01/03 07:59:13;;;;;;;0.10;0.10;;;;;;;;;;5083641;28;20605;-83
2024/01/03 08:01:42;;;;;;;0.10;0.10;;;;;;;;;;5088542;28;20055;-81
2024/01/03 08:04:09;;;;;;;0.10;0.10;;;;;;;;;;5081664;28;20072;-80
2024/01/03 08:06:35;;;;;;;0.10;0.10;;;;;;;;;;5087015;28;20048;-83
2024/01/03 08:09:02;;;;;;;0.10;0.10;;;;;;;;;;5088142;28;20142;-83
2024/01/03 08:11:28;;;;;;;0.10;0.10;;;;;;;;;;5092311;28;20143;-83
2024/01/03 08:13:55;;;;;;;0.10;0.10;;;;;;;;;;5090300;28;20045;-82
2024/01/03 08:16:21;;;;;;;0.10;0.10;;;;;;;;;;5089359;28;20040;-82
2024/01/03 08:18:48;;;;;;;0.10;0.10;;;;;;;;;;5094791;28;20056;-81
2024/01/03 08:21:15;;;;;;;0.10;0.10;;;;;;;;;;5090676;28;20064;-81
2024/01/03 08:23:42;;;;;;;0.10;0.10;;;;;;;;;;5092472;28;20060;-82
2024/01/03 08:26:09;;;;;;;0.10;0.10;;;;;;;;;;5090719;28;20134;-82
2024/01/03 08:28:41;;;;;;;0.10;0.10;;;;;;;;;;5091501;28;20063;-83
2024/01/03 08:31:08;;;;;;;0.10;0.10;;;;;;;;;;5087265;28;20048;-83
2024/01/03 08:33:36;;;;;;;0.10;0.10;;;;;;;;;;5091069;28;20211;-80
2024/01/03 08:36:03;;;;;;;0.10;0.10;;;;;;;;;;5097976;28;20057;-80
2024/01/03 08:38:29;;;;;;;0.10;0.10;;;;;;;;;;5091502;28;20078;-80
2024/01/03 08:40:58;;;;;;;7.82;0.75;;;;;;;;;;5088517;28;20095;-81
2024/01/03 08:43:24;;;;;;;0.10;0.10;;;;;;;;;;5089172;28;20052;-81
2024/01/03 08:45:51;;;;;;;0.10;0.10;;;;;;;;;;5090235;28;20636;-82
2024/01/03 08:48:17;;;;;;;0.10;0.10;;;;;;;;;;5087545;28;20100;-81
2024/01/03 08:50:44;;;;;;;0.10;0.10;;;;;;;;;;5084028;28;20057;-82
2024/01/03 08:53:11;;;;;;;0.10;0.10;;;;;;;;;;5082593;28;20739;-83
2024/01/03 08:55:37;;;;;;;0.52;0.35;;;;;;;;;;5077777;28;20060;-83
2024/01/03 08:58:03;;;;;;;0.10;0.10;;;;;;;;;;5090053;28;20060;-83
2024/01/03 09:00:30;;;;;;;0.10;0.10;;;;;;;;;;5089526;28;20044;-80
2024/01/03 09:03:00;;;;;;;0.10;0.10;;;;;;;;;;5084473;28;20129;-81
2024/01/03 09:05:26;;;;;;;0.55;0.55;;;;;;;;;;5090662;28;20049;-81
2024/01/03 09:07:53;;;;;;;0.15;0.15;;;;;;;;;;5089726;28;20045;-83
2024/01/03 09:10:19;;;;;;;0.10;0.10;;;;;;;;;;5088713;28;20066;-83
2024/01/03 09:12:46;;;;;;;0.10;0.10;;;;;;;;;;5087902;28;20183;-84
2024/01/03 09:15:12;;;;;;;0.10;0.10;;;;;;;;;;5090262;28;20467;-83
2024/01/03 09:17:42;;;;;;;0.10;0.10;;;;;;;;;;5089531;28;20850;-84
2024/01/03 09:20:10;;;;;;;0.10;0.10;;;;;;;;;;5089464;28;20045;-81
2024/01/03 09:22:37;;;;;;;0.10;0.10;;;;;;;;;;5089625;28;20051;-84
2024/01/03 09:25:04;;;;;;;0.10;0.10;;;;;;;;;;5081121;28;20084;-82
2024/01/03 09:27:30;;;;;;;0.65;0.65;;;;;;;;;;5093015;28;20544;-83
2024/01/03 09:29:57;;;;;;;1.15;1.10;;;;;;;;;;5089962;28;20052;-82
2024/01/03 09:32:26;;;;;;;0.10;0.10;;;;;;;;;;5087947;28;20039;-84
2024/01/03 09:34:55;;;;;;;0.10;0.10;;;;;;;;;;5088724;28;20056;-80
2024/01/03 09:37:22;;;;;;;0.10;0.10;;;;;;;;;;5090295;28;20893;-81
2024/01/03 09:39:48;;;;;;;0.10;0.10;;;;;;;;;;5090528;28;20049;-81
2024/01/03 09:42:16;;;;;;;0.10;0.10;;;;;;;;;;5088708;28;20044;-83
2024/01/03 09:44:44;;;;;;;0.10;0.10;;;;;;;;;;5088314;28;20045;-83
2024/01/03 09:47:12;;;;;;;0.10;0.10;;;;;;;;;;5085222;28;20071;-81
2024/01/03 09:49:38;;;;;;;0.10;0.10;;;;;;;;;;5090901;28;20160;-84
2024/01/03 09:52:07;;;;;;;0.10;0.10;;;;;;;;;;5084131;28;20587;-82
2024/01/03 09:54:36;;;;;;;0.95;0.95;;;;;;;;;;5097829;28;20064;-83
2024/01/03 09:57:07;;;;;;;0.10;0.10;;;;;;;;;;5080203;28;20053;-81
2024/01/03 09:59:34;;;;;;;0.10;0.10;;;;;;;;;;5086476;28;20052;-81
2024/01/03 10:02:05;;;;;;;0.10;0.10;;;;;;;;;;5087126;28;20057;-84
2024/01/03 10:04:33;;;;;;;0.10;0.10;;;;;;;;;;5092059;28;20056;-84
2024/01/03 10:06:59;;;;;;;0.15;0.15;;;;;;;;;;5085609;28;20055;-84
2024/01/03 10:09:39;;;;;;;0.10;0.10;;;;;;;;;;5089245;28;20140;-82
2024/01/03 10:12:14;;;;;;;0.10;0.10;;;;;;;;;;5084823;28;20059;-84
2024/01/03 10:14:41;;;;;;;0.08;0.08;;;;;;;;;;5091803;28;20069;-82
2024/01/03 10:17:10;;;;;;;0.10;0.10;;;;;;;;;;5090634;28;20048;-83
2024/01/03 10:19:37;;;;;;;0.90;0.90;;;;;;;;;;5089778;28;20063;-82
2024/01/03 10:22:03;;;;;;;1.55;0.75;;;;;;;;;;5089020;28;20064;-82
2024/01/03 10:24:33;;;;;;;0.10;0.10;;;;;;;;;;5080617;28;20049;-83
2024/01/03 10:27:09;;;;;;;0.10;0.10;;;;;;;;;;5079757;28;20060;-82
2024/01/03 10:29:36;;;;;;;0.10;0.10;;;;;;;;;;5088454;28;20052;-83
2024/01/03 10:32:05;;;;;;;0.10;0.10;;;;;;;;;;5082685;28;20113;-84
2024/01/03 10:34:31;;;;;;;0.10;0.10;;;;;;;;;;5079476;28;20056;-82
2024/01/03 10:36:58;;;;;;;0.10;0.10;;;;;;;;;;5074429;28;20588;-83
2024/01/03 10:39:25;;;;;;;0.10;0.10;;;;;;;;;;5084552;28;20552;-82
2024/01/03 10:41:52;;;;;;;0.10;0.10;;;;;;;;;;5086370;28;20063;-81
2024/01/03 10:44:19;;;;;;;0.10;0.10;;;;;;;;;;5080260;28;20057;-81
2024/01/03 10:46:47;;;;;;;0.10;0.10;;;;;;;;;;5086935;28;20070;-79
2024/01/03 10:49:15;;;;;;;5.15;2.58;;;;;;;;;;5081744;28;20196;-83
2024/01/03 10:51:45;;;;;;;0.10;0.10;;;;;;;;;;5087372;28;20451;-83
2024/01/03 10:54:16;;;;;;;0.10;0.10;;;;;;;;;;5086347;28;20044;-83
2024/01/03 10:56:50;;;;;;;0.10;0.10;;;;;;;;;;5092012;28;20052;-84
2024/01/03 10:59:17;;;;;;;0.10;0.10;;;;;;;;;;5088283;28;20541;-83
2024/01/03 11:01:53;;;;;;;0.10;0.10;;;;;;;;;;5089446;28;20059;-81
2024/01/03 11:04:31;;;;;;;0.10;0.10;;;;;;;;;;5085159;28;20061;-80
2024/01/03 11:07:00;;;;;;;0.10;0.10;;;;;;;;;;5090655;28;20052;-81
2024/01/03 11:09:27;;;;;;;0.20;0.20;;;;;;;;;;5087445;28;20643;-82
2024/01/03 11:12:07;;;;;;;0.10;0.10;;;;;;;;;;5081120;28;20057;-83
2024/01/03 11:14:34;;;;;;;0.10;0.10;;;;;;;;;;5090423;28;20053;-82
2024/01/03 11:17:02;;;;;;;0.10;0.10;;;;;;;;;;5083046;28;21022;-81
2024/01/03 11:19:30;;;;;;;4.28;1.95;;;;;;;;;;5085630;28;20110;-83
2024/01/03 11:22:02;;;;;;;0.03;0.03;;;;;;;;;;5082739;28;20148;-83
2024/01/03 11:24:29;;;;;;;0.10;0.10;;;;;;;;;;5078784;28;20056;-83
2024/01/03 11:26:58;;;;;;;0.20;0.20;;;;;;;;;;5085870;28;20049;-83
2024/01/03 11:29:50;;;;;;;0.10;0.10;;;;;;;;;;5085211;28;20526;-83
2024/01/03 11:32:29;;;;;;;0.10;0.10;;;;;;;;;;5089093;28;20048;-82
2024/01/03 11:35:04;;;;;;;0.10;0.10;;;;;;;;;;5074997;28;20056;-84
2024/01/03 11:37:31;;;;;;;0.10;0.10;;;;;;;;;;5088716;28;20059;-83
2024/01/03 11:39:57;;;;;;;0.10;0.10;;;;;;;;;;5084736;28;20056;-82
2024/01/03 11:42:40;;;;;;;0.10;0.10;;;;;;;;;;5094295;28;20108;-84
2024/01/03 11:45:11;;;;;;;0.10;0.10;;;;;;;;;;5087738;28;20606;-81
2024/01/03 11:47:40;;;;;;;0.10;0.10;;;;;;;;;;5086099;28;20509;-85
2024/01/03 11:50:08;;;;;;;1.13;0.57;;;;;;;;;;5088531;28;20063;-82
2024/01/03 11:52:36;;;;;;;0.10;0.10;;;;;;;;;;5089716;28;20059;-84
2024/01/03 11:55:05;;;;;;;0.10;0.10;;;;;;;;;;5089706;28;20065;-83
2024/01/03 11:57:36;;;;;;;0.10;0.10;;;;;;;;;;5090005;28;20170;-82
2024/01/03 12:00:04;;;;;;;1.90;0.85;;;;;;;;;;5084698;28;20060;-82
2024/01/03 12:02:31;;;;;;;0.10;0.10;;;;;;;;;;5086271;28;20048;-82
2024/01/03 12:04:58;;;;;;;0.10;0.10;;;;;;;;;;5089650;28;20151;-83
2024/01/03 12:07:24;;;;;;;0.10;0.10;;;;;;;;;;5103381;28;20064;-83
2024/01/03 12:09:51;;;;;;;0.10;0.10;;;;;;;;;;5164058;22;20055;-80
2024/01/03 12:12:17;;;;;;;0.10;0.10;;;;;;;;;;5114323;27;20048;-79
2024/01/03 12:14:49;;;;;;;0.52;0.28;;;;;;;;;;5111367;27;20048;-80
2024/01/03 12:17:22;;;;;;;0.10;0.10;;;;;;;;;;5110587;27;20100;-80
2024/01/03 12:19:49;;;;;;;0.10;0.10;;;;;;;;;;5112202;27;20472;-81
2024/01/03 12:22:24;;;;;;;0.45;0.45;;;;;;;;;;5098670;27;20055;-81
2024/01/03 12:24:50;;;;;;;0.10;0.10;;;;;;;;;;5109876;27;20103;-81
2024/01/03 12:27:23;;;;;;;0.22;0.22;;;;;;;;;;5092810;27;20059;-80
2024/01/03 12:30:08;;;;;;;0.22;0.22;;;;;;;;;;5092944;28;20043;-80
2024/01/03 12:32:35;;;;;;;0.10;0.10;;;;;;;;;;5109690;28;20056;-81
2024/01/03 12:35:02;;;;;;;0.10;0.10;;;;;;;;;;5113712;27;20147;-81
2024/01/03 12:37:28;;;;;;;0.10;0.10;;;;;;;;;;5102057;27;20205;-81
2024/01/03 12:39:55;;;;;;;0.10;0.10;;;;;;;;;;5104295;28;20635;-80
2024/01/03 12:42:21;;;;;;;0.10;0.10;;;;;;;;;;5108158;28;20131;-80
2024/01/03 12:45:01;;;;;;;0.10;0.10;;;;;;;;;;5100116;27;20088;-81
2024/01/03 12:47:27;;;;;;;0.20;0.20;;;;;;;;;;5090671;28;20052;-80
2024/01/03 12:49:55;;;;;;;1.92;0.60;;;;;;;;;;5094019;28;20053;-80
2024/01/03 12:52:26;;;;;;;0.10;0.10;;;;;;;;;;5104453;27;20055;-79
2024/01/03 12:54:52;;;;;;;0.10;0.10;;;;;;;;;;5102857;27;20517;-79
2024/01/03 12:57:19;;;;;;;0.10;0.10;;;;;;;;;;5099219;27;20055;-80
2024/01/03 12:59:45;;;;;;;0.10;0.10;;;;;;;;;;5102080;27;20131;-81
2024/01/03 13:02:12;;;;;;;0.10;0.10;;;;;;;;;;5110085;27;20052;-82
2024/01/03 13:04:38;;;;;;;0.10;0.10;;;;;;;;;;5112087;27;20118;-81
2024/01/03 13:07:05;;;;;;;0.10;0.10;;;;;;;;;;5102281;27;20052;-81
2024/01/03 13:09:31;;;;;;;0.10;0.10;;;;;;;;;;5103640;27;20056;-81
2024/01/03 13:11:58;;;;;;;0.10;0.10;;;;;;;;;;5103180;27;20233;-80
2024/01/03 13:14:24;;;;;;;0.75;0.75;;;;;;;;;;5105077;28;20044;-81
2024/01/03 13:16:50;;;;;;;0.17;0.17;;;;;;;;;;5098353;27;20055;-81
2024/01/03 13:19:17;;;;;;;0.10;0.10;;;;;;;;;;5111314;28;20056;-79
2024/01/03 13:21:44;;;;;;;0.10;0.10;;;;;;;;;;5100397;27;20114;-81
2024/01/03 13:24:12;;;;;;;0.10;0.10;;;;;;;;;;5102000;27;20050;-81
2024/01/03 13:26:38;;;;;;;0.10;0.10;;;;;;;;;;5092463;28;20130;-81
2024/01/03 13:29:06;;;;;;;0.10;0.10;;;;;;;;;;5105790;28;20129;-81
2024/01/03 13:31:32;;;;;;;0.10;0.10;;;;;;;;;;5096661;27;20063;-79
2024/01/03 13:33:59;;;;;;;0.10;0.10;;;;;;;;;;5103702;27;20059;-80
2024/01/03 13:36:25;;;;;;;0.10;0.10;;;;;;;;;;5103543;28;20044;-80
2024/01/03 13:38:52;;;;;;;0.10;0.10;;;;;;;;;;5111375;27;20056;-80
2024/01/03 13:41:19;;;;;;;0.10;0.10;;;;;;;;;;5108941;27;20036;-80
2024/01/03 13:43:46;;;;;;;0.10;0.10;;;;;;;;;;5106299;27;20056;-80
2024/01/03 13:46:13;;;;;;;0.10;0.10;;;;;;;;;;5105579;27;20111;-80
2024/01/03 13:48:39;;;;;;;0.10;0.10;;;;;;;;;;5110341;27;20052;-79
2024/01/03 13:51:07;;;;;;;0.10;0.10;;;;;;;;;;5109637;27;20716;-80
2024/01/03 13:53:34;;;;;;;0.10;0.10;;;;;;;;;;5108651;27;20896;-80
2024/01/03 13:56:01;;;;;;;0.47;0.47;;;;;;;;;;5104495;27;20040;-80
2024/01/03 13:58:28;;;;;;;0.10;0.10;;;;;;;;;;5094038;28;20052;-79
2024/01/03 14:00:54;;;;;;;0.10;0.10;;;;;;;;;;5095607;27;20134;-79
2024/01/03 14:03:21;;;;;;;0.10;0.10;;;;;;;;;;5100949;28;20098;-80
2024/01/03 14:05:47;;;;;;;0.10;0.10;;;;;;;;;;5100968;28;20059;-80
2024/01/03 14:08:14;;;;;;;0.47;0.47;;;;;;;;;;5103031;27;20070;-79
2024/01/03 14:10:40;;;;;;;0.10;0.10;;;;;;;;;;5094154;28;20056;-79
2024/01/03 14:13:06;;;;;;;0.10;0.10;;;;;;;;;;5099822;28;20071;-79
2024/01/03 14:15:33;;;;;;;0.73;0.73;;;;;;;;;;5103585;27;20108;-80
2024/01/03 14:18:00;;;;;;;0.10;0.10;;;;;;;;;;5109653;28;20135;-80
2024/01/03 14:20:27;;;;;;;0.10;0.10;;;;;;;;;;5109813;28;20059;-80
2024/01/03 14:22:54;;;;;;;0.10;0.10;;;;;;;;;;5102031;27;20048;-79
2024/01/03 14:25:21;;;;;;;0.10;0.10;;;;;;;;;;5107291;27;20096;-79
2024/01/03 14:27:52;;;;;;;0.10;0.10;;;;;;;;;;5099196;27;20133;-80
2024/01/03 14:30:19;;;;;;;0.10;0.10;;;;;;;;;;5112759;28;20896;-79
2024/01/03 14:32:46;;;;;;;0.10;0.10;;;;;;;;;;5114188;27;20151;-79
2024/01/03 14:35:15;;;;;;;0.10;0.10;;;;;;;;;;5111814;27;20139;-79
2024/01/03 14:37:42;;;;;;;0.10;0.10;;;;;;;;;;5106506;28;20953;-80
2024/01/03 14:40:14;;;;;;;0.10;0.10;;;;;;;;;;5111247;27;20058;-80
2024/01/03 14:42:47;;;;;;;0.10;0.10;;;;;;;;;;5111563;27;20125;-80
2024/01/03 14:45:17;;;;;;;0.10;0.10;;;;;;;;;;5111004;27;20297;-80
2024/01/03 14:47:44;;;;;;;0.10;0.10;;;;;;;;;;5112485;27;20139;-80